Time;durP1;ratioP1;P1;durP2;ratioP2;P2;SDS_P1;SDS_P2;PMS_P1;PMS_P2;Temp;Humidity;BMP_temperature;BMP_pressure;BME280_temperature;BME280_humidity;BME280_pressure;Samples;Min_cycle;Max_cycle;Signal;HPM_P1;HPM_P2
2023/05/20 00:02:23;;;;;;;9.30;3.47;;;;;;;;;;4934306;28;20047;-51
2023/05/20 00:04:52;;;;;;;11.65;3.38;;;;;;;;;;4935429;28;20112;-49
2023/05/20 00:07:21;;;;;;;12.55;3.88;;;;;;;;;;4938665;28;20046;-47
2023/05/20 00:09:48;;;;;;;9.23;3.67;;;;;;;;;;4943607;28;20036;-47
2023/05/20 00:12:16;;;;;;;10.00;3.08;;;;;;;;;;4924794;28;20180;-49
2023/05/20 00:14:45;;;;;;;11.32;3.45;;;;;;;;;;4946949;28;20053;-47
2023/05/20 00:17:16;;;;;;;9.80;3.45;;;;;;;;;;4977302;28;20487;-47
2023/05/20 00:19:45;;;;;;;7.63;2.60;;;;;;;;;;4967946;28;20681;-49
2023/05/20 00:22:15;;;;;;;7.60;2.73;;;;;;;;;;4976000;28;20052;-47
2023/05/20 00:24:43;;;;;;;8.70;3.28;;;;;;;;;;4967120;28;20037;-47
2023/05/20 00:27:10;;;;;;;8.35;2.70;;;;;;;;;;4974064;28;20037;-49
2023/05/20 00:29:40;;;;;;;7.30;2.10;;;;;;;;;;4974956;28;20074;-49
2023/05/20 00:32:08;;;;;;;9.45;2.78;;;;;;;;;;4971265;28;20054;-51
2023/05/20 00:34:35;;;;;;;8.47;2.57;;;;;;;;;;4967731;28;20125;-49
2023/05/20 00:37:04;;;;;;;9.85;2.15;;;;;;;;;;4974506;28;20517;-48
2023/05/20 00:39:33;;;;;;;7.28;2.25;;;;;;;;;;4973829;28;20561;-46
2023/05/20 00:42:02;;;;;;;8.93;2.20;;;;;;;;;;4976035;28;20148;-51
2023/05/20 00:44:31;;;;;;;7.78;2.50;;;;;;;;;;4961738;28;21108;-50
2023/05/20 00:46:58;;;;;;;8.20;2.10;;;;;;;;;;4974644;28;20452;-50
2023/05/20 00:49:26;;;;;;;11.10;2.45;;;;;;;;;;4972661;28;20096;-47
2023/05/20 00:51:55;;;;;;;7.00;2.20;;;;;;;;;;4986289;28;20041;-48
2023/05/20 00:54:22;;;;;;;6.80;2.47;;;;;;;;;;4974092;28;20042;-48
2023/05/20 00:56:51;;;;;;;7.38;2.35;;;;;;;;;;4969077;28;20081;-50
2023/05/20 00:59:21;;;;;;;10.03;2.50;;;;;;;;;;4964263;28;20045;-50
2023/05/20 01:01:49;;;;;;;12.50;2.97;;;;;;;;;;4984590;28;20755;-48
2023/05/20 01:04:19;;;;;;;8.88;2.45;;;;;;;;;;4950108;28;20046;-49
2023/05/20 01:06:48;;;;;;;7.80;2.60;;;;;;;;;;4968304;28;20482;-48
2023/05/20 01:09:16;;;;;;;11.98;2.58;;;;;;;;;;4971398;28;20420;-48
2023/05/20 01:11:46;;;;;;;8.60;2.40;;;;;;;;;;4964095;28;20485;-48
2023/05/20 01:14:20;;;;;;;9.80;2.78;;;;;;;;;;4976440;28;20038;-47
2023/05/20 01:16:51;;;;;;;9.30;2.42;;;;;;;;;;4955259;28;20135;-49
2023/05/20 01:19:22;;;;;;;8.27;2.75;;;;;;;;;;4970525;28;20096;-48
2023/05/20 01:21:50;;;;;;;10.50;3.15;;;;;;;;;;4981170;28;20096;-50
2023/05/20 01:24:19;;;;;;;7.40;2.77;;;;;;;;;;4972434;28;20105;-48
2023/05/20 01:26:53;;;;;;;8.85;3.13;;;;;;;;;;4974356;28;20050;-48
2023/05/20 01:29:21;;;;;;;11.43;3.15;;;;;;;;;;4983516;28;20034;-49
2023/05/20 01:31:50;;;;;;;9.50;2.88;;;;;;;;;;4959677;28;20042;-49
2023/05/20 01:34:18;;;;;;;10.25;3.22;;;;;;;;;;4980432;28;20068;-49
2023/05/20 01:36:46;;;;;;;12.83;2.80;;;;;;;;;;4976711;28;20034;-48
2023/05/20 01:39:15;;;;;;;10.13;2.97;;;;;;;;;;4965887;28;20073;-48
2023/05/20 01:41:45;;;;;;;8.07;3.13;;;;;;;;;;4964369;28;20044;-47
2023/05/20 01:44:12;;;;;;;12.60;3.08;;;;;;;;;;4968652;28;20631;-49
2023/05/20 01:46:42;;;;;;;10.18;3.08;;;;;;;;;;4980513;28;20042;-48
2023/05/20 01:49:11;;;;;;;8.83;2.60;;;;;;;;;;4978303;28;20061;-48
2023/05/20 01:51:38;;;;;;;8.30;3.20;;;;;;;;;;4978552;28;20042;-48
2023/05/20 01:54:06;;;;;;;12.55;3.67;;;;;;;;;;4961915;28;20511;-47
2023/05/20 01:56:35;;;;;;;9.15;2.85;;;;;;;;;;4968647;28;20073;-47
2023/05/20 01:59:03;;;;;;;11.43;2.78;;;;;;;;;;4979738;28;20335;-46
2023/05/20 02:01:32;;;;;;;9.57;2.97;;;;;;;;;;4972709;28;20096;-48
2023/05/20 02:04:00;;;;;;;11.23;2.90;;;;;;;;;;4975499;28;20049;-47
2023/05/20 02:06:28;;;;;;;15.18;3.38;;;;;;;;;;4958292;28;20047;-48
2023/05/20 02:08:56;;;;;;;10.52;2.70;;;;;;;;;;4982751;28;20096;-49
2023/05/20 02:11:24;;;;;;;10.43;2.60;;;;;;;;;;4969308;28;20038;-48
2023/05/20 02:13:52;;;;;;;8.90;2.90;;;;;;;;;;4981659;28;20060;-49
2023/05/20 02:16:21;;;;;;;14.30;3.17;;;;;;;;;;4956441;28;20440;-52
2023/05/20 02:18:51;;;;;;;12.10;3.67;;;;;;;;;;4935489;28;20087;-50
2023/05/20 02:21:19;;;;;;;10.05;2.75;;;;;;;;;;4929689;28;20066;-48
2023/05/20 02:23:48;;;;;;;12.65;3.67;;;;;;;;;;4935126;28;20453;-48
2023/05/20 02:26:16;;;;;;;8.93;2.90;;;;;;;;;;4945521;28;20922;-48
2023/05/20 02:28:49;;;;;;;13.07;3.78;;;;;;;;;;4936229;28;20134;-48
2023/05/20 02:31:18;;;;;;;9.98;3.60;;;;;;;;;;4939682;28;20410;-46
2023/05/20 02:33:48;;;;;;;11.60;3.30;;;;;;;;;;4945869;28;20050;-47
2023/05/20 02:36:16;;;;;;;8.43;3.08;;;;;;;;;;4930612;28;20042;-48
2023/05/20 02:38:45;;;;;;;14.70;3.30;;;;;;;;;;4937926;28;20047;-48
2023/05/20 02:41:12;;;;;;;11.90;3.42;;;;;;;;;;4934090;28;20043;-47
2023/05/20 02:43:40;;;;;;;11.75;3.53;;;;;;;;;;4927766;28;20051;-48
2023/05/20 02:46:08;;;;;;;13.80;3.70;;;;;;;;;;4940595;28;20046;-48
2023/05/20 02:48:36;;;;;;;12.15;3.90;;;;;;;;;;4939912;28;20077;-48
2023/05/20 02:51:05;;;;;;;13.43;3.80;;;;;;;;;;4928985;28;20043;-48
2023/05/20 02:53:34;;;;;;;10.30;3.72;;;;;;;;;;4947931;28;20050;-47
2023/05/20 02:56:03;;;;;;;14.55;3.90;;;;;;;;;;4906957;28;20097;-48
2023/05/20 02:58:34;;;;;;;11.07;3.90;;;;;;;;;;4942524;28;20031;-47
2023/05/20 03:01:03;;;;;;;11.13;3.20;;;;;;;;;;4928293;28;20045;-48
2023/05/20 03:03:31;;;;;;;10.47;3.50;;;;;;;;;;4941627;28;20035;-47
2023/05/20 03:05:58;;;;;;;10.93;4.25;;;;;;;;;;4938269;28;20221;-47
2023/05/20 03:08:28;;;;;;;12.20;3.95;;;;;;;;;;4905939;28;20650;-48
2023/05/20 03:10:56;;;;;;;16.40;4.10;;;;;;;;;;4941653;28;20047;-46
2023/05/20 03:13:24;;;;;;;12.35;4.30;;;;;;;;;;4929327;28;20565;-48
2023/05/20 03:15:54;;;;;;;14.97;4.70;;;;;;;;;;4965037;28;20058;-48
2023/05/20 03:18:22;;;;;;;13.52;3.70;;;;;;;;;;4984382;28;20045;-46
2023/05/20 03:20:49;;;;;;;16.42;4.40;;;;;;;;;;4980591;28;20066;-47
2023/05/20 03:23:18;;;;;;;13.48;4.28;;;;;;;;;;4968159;28;20034;-47
2023/05/20 03:25:48;;;;;;;12.15;4.30;;;;;;;;;;4952729;28;20050;-48
2023/05/20 03:28:15;;;;;;;18.67;4.27;;;;;;;;;;4988169;28;20036;-47
2023/05/20 03:30:44;;;;;;;21.70;5.00;;;;;;;;;;4981202;28;20117;-46
2023/05/20 03:33:11;;;;;;;19.75;4.82;;;;;;;;;;4972311;28;20042;-47
2023/05/20 03:35:39;;;;;;;12.57;4.43;;;;;;;;;;4978472;28;20062;-47
2023/05/20 03:38:08;;;;;;;18.40;4.80;;;;;;;;;;4980224;28;20034;-48
2023/05/20 03:40:35;;;;;;;15.13;4.73;;;;;;;;;;4974150;28;20054;-46
2023/05/20 03:43:04;;;;;;;16.48;4.05;;;;;;;;;;4971571;28;20056;-49
2023/05/20 03:45:33;;;;;;;13.88;4.60;;;;;;;;;;4974357;28;20057;-48
2023/05/20 03:48:02;;;;;;;12.07;4.93;;;;;;;;;;4976553;28;20049;-49
2023/05/20 03:50:31;;;;;;;16.25;4.72;;;;;;;;;;4978125;28;20042;-47
2023/05/20 03:53:00;;;;;;;14.40;4.83;;;;;;;;;;4981466;28;20038;-47
2023/05/20 03:55:27;;;;;;;19.17;5.38;;;;;;;;;;4961858;28;20428;-47
2023/05/20 03:57:55;;;;;;;17.77;4.88;;;;;;;;;;4984065;28;20041;-47
2023/05/20 04:00:25;;;;;;;17.30;4.00;;;;;;;;;;4980372;28;20042;-48
2023/05/20 04:02:52;;;;;;;18.70;4.65;;;;;;;;;;4960854;28;20038;-48
2023/05/20 04:05:20;;;;;;;13.83;4.23;;;;;;;;;;4984722;28;20034;-48
2023/05/20 04:07:50;;;;;;;16.42;4.57;;;;;;;;;;4969698;28;20037;-47
2023/05/20 04:10:18;;;;;;;11.02;3.75;;;;;;;;;;4971805;28;20045;-46
2023/05/20 04:12:46;;;;;;;13.38;4.88;;;;;;;;;;4969470;28;20038;-48
2023/05/20 04:15:16;;;;;;;16.20;4.75;;;;;;;;;;4979569;28;20062;-47
2023/05/20 04:17:47;;;;;;;14.20;4.60;;;;;;;;;;4969983;28;20038;-46
2023/05/20 04:20:15;;;;;;;14.20;4.57;;;;;;;;;;4981314;28;20037;-50
2023/05/20 04:22:44;;;;;;;13.40;5.28;;;;;;;;;;4975358;28;21181;-47
2023/05/20 04:25:12;;;;;;;12.35;4.05;;;;;;;;;;4972153;28;20105;-48
2023/05/20 04:27:40;;;;;;;12.38;4.45;;;;;;;;;;4974914;28;20114;-46
2023/05/20 04:30:10;;;;;;;13.33;4.47;;;;;;;;;;4971498;28;21756;-49
2023/05/20 04:32:37;;;;;;;12.98;4.30;;;;;;;;;;4979315;28;20049;-47
2023/05/20 04:35:10;;;;;;;13.20;4.40;;;;;;;;;;4980051;28;20474;-46
2023/05/20 04:37:41;;;;;;;12.05;3.67;;;;;;;;;;4964298;28;20038;-46
2023/05/20 04:40:12;;;;;;;13.63;4.22;;;;;;;;;;4967486;28;20470;-47
2023/05/20 04:42:42;;;;;;;15.17;4.07;;;;;;;;;;4956104;28;20042;-47
2023/05/20 04:45:11;;;;;;;15.88;4.68;;;;;;;;;;4962473;28;20050;-48
2023/05/20 04:47:38;;;;;;;17.75;3.75;;;;;;;;;;4976712;28;20041;-46
2023/05/20 04:50:10;;;;;;;15.65;4.65;;;;;;;;;;4961608;28;20303;-48
2023/05/20 04:52:38;;;;;;;11.88;4.32;;;;;;;;;;4978497;28;20034;-47
2023/05/20 04:55:08;;;;;;;13.07;4.00;;;;;;;;;;4981570;28;20142;-47
2023/05/20 04:57:40;;;;;;;14.13;4.57;;;;;;;;;;4984991;28;20554;-46
2023/05/20 05:00:09;;;;;;;19.33;4.85;;;;;;;;;;4948490;28;20038;-47
2023/05/20 05:02:38;;;;;;;19.67;5.05;;;;;;;;;;4978002;28;20034;-49
2023/05/20 05:05:08;;;;;;;13.77;4.60;;;;;;;;;;4965724;28;20519;-48
2023/05/20 05:07:36;;;;;;;17.37;4.77;;;;;;;;;;4987193;28;20041;-47
2023/05/20 05:10:04;;;;;;;19.92;4.63;;;;;;;;;;4969530;28;20492;-46
2023/05/20 05:12:32;;;;;;;16.40;4.70;;;;;;;;;;4983318;28;20042;-47
2023/05/20 05:15:00;;;;;;;13.95;4.82;;;;;;;;;;4962401;28;20062;-47
2023/05/20 05:17:28;;;;;;;21.02;4.57;;;;;;;;;;4968907;28;20038;-47
2023/05/20 05:19:58;;;;;;;11.63;4.63;;;;;;;;;;4972986;28;20042;-46
2023/05/20 05:22:27;;;;;;;12.13;4.35;;;;;;;;;;4968165;28;20057;-49
2023/05/20 05:24:57;;;;;;;14.48;3.95;;;;;;;;;;4984568;28;20061;-47
2023/05/20 05:27:25;;;;;;;16.45;4.88;;;;;;;;;;4975434;28;20040;-47
2023/05/20 05:29:53;;;;;;;11.68;3.83;;;;;;;;;;4981023;28;20104;-47
2023/05/20 05:32:21;;;;;;;14.90;4.13;;;;;;;;;;4973953;28;20542;-46
2023/05/20 05:34:49;;;;;;;12.35;4.47;;;;;;;;;;4974544;28;20050;-46
2023/05/20 05:37:17;;;;;;;14.77;4.63;;;;;;;;;;4964591;28;21380;-50
2023/05/20 05:39:47;;;;;;;9.80;4.03;;;;;;;;;;4989310;28;20050;-49
2023/05/20 05:42:15;;;;;;;14.65;4.55;;;;;;;;;;4956643;28;20035;-47
2023/05/20 05:44:43;;;;;;;13.70;4.40;;;;;;;;;;4975623;28;20069;-47
2023/05/20 05:47:12;;;;;;;17.58;4.13;;;;;;;;;;4961652;28;20602;-47
2023/05/20 05:49:40;;;;;;;16.60;4.10;;;;;;;;;;4977684;28;20067;-46
2023/05/20 05:52:08;;;;;;;13.45;4.28;;;;;;;;;;4973330;28;20054;-49
2023/05/20 05:54:38;;;;;;;15.57;5.63;;;;;;;;;;4982651;28;20049;-49
2023/05/20 05:57:10;;;;;;;14.87;4.77;;;;;;;;;;4975317;28;20481;-48
2023/05/20 05:59:41;;;;;;;20.80;5.03;;;;;;;;;;4973758;28;20100;-47
2023/05/20 06:02:09;;;;;;;13.15;4.32;;;;;;;;;;4978199;28;20047;-52
2023/05/20 06:04:38;;;;;;;15.43;4.20;;;;;;;;;;4979556;28;20075;-48
2023/05/20 06:07:06;;;;;;;13.70;4.90;;;;;;;;;;4972128;28;20034;-46
2023/05/20 06:09:34;;;;;;;14.33;4.30;;;;;;;;;;4976235;28;20061;-47
2023/05/20 06:12:02;;;;;;;14.13;4.30;;;;;;;;;;4985809;28;20141;-47
2023/05/20 06:14:31;;;;;;;17.90;5.70;;;;;;;;;;4971545;28;20053;-47
2023/05/20 06:16:59;;;;;;;13.25;4.13;;;;;;;;;;4979891;28;20207;-50
2023/05/20 06:19:27;;;;;;;14.00;4.70;;;;;;;;;;4964863;28;20133;-47
2023/05/20 06:21:56;;;;;;;15.97;4.23;;;;;;;;;;4981338;28;20034;-48
2023/05/20 06:24:23;;;;;;;14.60;4.32;;;;;;;;;;4963212;28;20034;-48
2023/05/20 06:26:52;;;;;;;14.52;4.95;;;;;;;;;;4968171;28;21547;-47
2023/05/20 06:29:20;;;;;;;15.70;4.68;;;;;;;;;;4985907;28;20038;-46
2023/05/20 06:31:49;;;;;;;12.05;4.53;;;;;;;;;;4981228;28;20042;-47
2023/05/20 06:34:17;;;;;;;13.43;4.80;;;;;;;;;;4981440;28;20049;-49
2023/05/20 06:36:45;;;;;;;13.85;4.30;;;;;;;;;;4986412;28;20187;-47
2023/05/20 06:39:13;;;;;;;14.20;4.75;;;;;;;;;;4976129;28;20034;-50
2023/05/20 06:41:41;;;;;;;12.35;3.90;;;;;;;;;;4981087;28;20034;-47
2023/05/20 06:44:11;;;;;;;14.52;4.95;;;;;;;;;;4987121;28;20117;-47
2023/05/20 06:46:39;;;;;;;13.47;4.37;;;;;;;;;;4967547;28;20126;-47
2023/05/20 06:49:09;;;;;;;10.20;4.25;;;;;;;;;;4964694;28;20488;-48
2023/05/20 06:51:37;;;;;;;13.30;4.22;;;;;;;;;;4967088;28;20026;-46
2023/05/20 06:54:05;;;;;;;11.50;3.65;;;;;;;;;;4965839;28;20058;-48
2023/05/20 06:56:34;;;;;;;12.55;3.95;;;;;;;;;;4979645;28;20133;-48
2023/05/20 06:59:02;;;;;;;14.10;3.80;;;;;;;;;;4979105;28;20052;-51
2023/05/20 07:01:29;;;;;;;13.55;4.05;;;;;;;;;;4974872;28;20365;-46
2023/05/20 07:03:57;;;;;;;13.90;4.50;;;;;;;;;;4979101;28;20382;-47
2023/05/20 07:06:29;;;;;;;16.75;4.53;;;;;;;;;;4970254;28;20073;-48
2023/05/20 07:08:56;;;;;;;11.45;3.95;;;;;;;;;;4986024;28;20046;-47
2023/05/20 07:11:24;;;;;;;11.40;3.40;;;;;;;;;;4974791;28;20386;-47
2023/05/20 07:13:52;;;;;;;13.93;4.05;;;;;;;;;;4993774;28;20045;-46
2023/05/20 07:16:20;;;;;;;15.43;4.35;;;;;;;;;;4961332;28;20908;-48
2023/05/20 07:18:49;;;;;;;13.82;3.90;;;;;;;;;;4983423;28;20108;-48
2023/05/20 07:21:17;;;;;;;15.10;4.32;;;;;;;;;;4981792;28;20038;-46
2023/05/20 07:23:47;;;;;;;14.37;3.87;;;;;;;;;;4979094;28;20042;-46
2023/05/20 07:26:15;;;;;;;11.15;3.67;;;;;;;;;;4981472;28;20491;-46
2023/05/20 07:28:44;;;;;;;12.48;3.28;;;;;;;;;;4938235;28;22799;-47
2023/05/20 07:31:12;;;;;;;12.93;3.28;;;;;;;;;;4989493;28;20045;-48
2023/05/20 07:33:40;;;;;;;10.55;3.35;;;;;;;;;;4971704;28;20038;-46
2023/05/20 07:36:10;;;;;;;16.17;4.33;;;;;;;;;;4986469;28;20053;-47
2023/05/20 07:38:38;;;;;;;14.85;3.22;;;;;;;;;;4968764;28;20042;-47
2023/05/20 07:41:10;;;;;;;13.50;3.75;;;;;;;;;;4982400;28;20035;-47
2023/05/20 07:43:39;;;;;;;14.00;3.70;;;;;;;;;;4958607;28;20046;-49
2023/05/20 07:46:06;;;;;;;12.40;3.60;;;;;;;;;;4983618;28;20038;-47
2023/05/20 07:48:34;;;;;;;8.60;3.20;;;;;;;;;;4964054;28;20588;-46
2023/05/20 07:51:02;;;;;;;10.73;3.40;;;;;;;;;;4970564;28;20053;-49
2023/05/20 07:53:30;;;;;;;9.18;3.15;;;;;;;;;;4972833;28;20247;-46
2023/05/20 07:55:58;;;;;;;10.63;3.03;;;;;;;;;;4954737;28;20518;-50
2023/05/20 07:58:30;;;;;;;9.65;3.28;;;;;;;;;;4984404;28;20034;-46
2023/05/20 08:00:57;;;;;;;9.17;3.43;;;;;;;;;;4972719;28;20049;-48
2023/05/20 08:03:25;;;;;;;11.05;3.25;;;;;;;;;;4973644;28;20030;-47
2023/05/20 08:05:54;;;;;;;13.85;3.30;;;;;;;;;;4974163;28;20121;-48
2023/05/20 08:08:21;;;;;;;11.07;3.08;;;;;;;;;;4963818;28;20049;-46
2023/05/20 08:10:50;;;;;;;8.27;2.88;;;;;;;;;;4980884;28;20120;-47
2023/05/20 08:13:18;;;;;;;11.20;3.33;;;;;;;;;;4952825;28;20042;-47
2023/05/20 08:15:48;;;;;;;15.20;3.63;;;;;;;;;;4975813;28;20058;-48
2023/05/20 08:18:15;;;;;;;10.88;3.72;;;;;;;;;;4965002;28;20057;-49
2023/05/20 08:20:43;;;;;;;7.53;2.90;;;;;;;;;;4956896;28;20113;-47
2023/05/20 08:23:11;;;;;;;10.88;3.10;;;;;;;;;;4969523;28;20080;-47
2023/05/20 08:25:39;;;;;;;10.97;3.10;;;;;;;;;;4965309;28;20041;-48
2023/05/20 08:28:09;;;;;;;10.35;2.40;;;;;;;;;;4973817;28;20049;-46
2023/05/20 08:30:36;;;;;;;11.98;2.45;;;;;;;;;;4984474;28;20550;-47
2023/05/20 08:33:06;;;;;;;10.20;2.92;;;;;;;;;;4959730;28;20496;-50
2023/05/20 08:35:34;;;;;;;9.27;2.50;;;;;;;;;;4979451;28;20492;-47
2023/05/20 08:38:02;;;;;;;7.83;2.17;;;;;;;;;;4984978;28;20056;-49
2023/05/20 08:40:30;;;;;;;12.38;2.63;;;;;;;;;;4971917;28;21056;-47
2023/05/20 08:43:00;;;;;;;7.75;2.40;;;;;;;;;;4984488;28;20050;-52
2023/05/20 08:45:30;;;;;;;11.30;2.53;;;;;;;;;;4971377;28;20123;-51
2023/05/20 08:47:59;;;;;;;6.38;2.15;;;;;;;;;;4967247;28;20046;-50
2023/05/20 08:50:28;;;;;;;7.53;2.17;;;;;;;;;;4970642;28;20062;-48
2023/05/20 08:52:56;;;;;;;6.60;2.30;;;;;;;;;;4962249;28;20042;-50
2023/05/20 08:55:25;;;;;;;8.50;2.35;;;;;;;;;;4943142;28;20045;-48
2023/05/20 08:57:54;;;;;;;8.20;1.88;;;;;;;;;;4981181;28;20128;-48
2023/05/20 09:00:26;;;;;;;10.55;2.63;;;;;;;;;;4963114;28;20062;-48
2023/05/20 09:02:55;;;;;;;9.77;2.50;;;;;;;;;;4975103;28;20048;-48
2023/05/20 09:05:28;;;;;;;7.65;2.45;;;;;;;;;;4975888;28;20492;-50
2023/05/20 09:08:05;;;;;;;9.15;2.53;;;;;;;;;;4968580;28;20054;-47
2023/05/20 09:10:33;;;;;;;8.32;2.20;;;;;;;;;;4976268;28;20037;-48
2023/05/20 09:13:02;;;;;;;9.77;2.15;;;;;;;;;;4972767;28;20525;-51
2023/05/20 09:15:31;;;;;;;9.53;2.40;;;;;;;;;;4975180;28;20066;-53
2023/05/20 09:18:00;;;;;;;9.25;1.90;;;;;;;;;;4970128;28;20045;-51
2023/05/20 09:20:32;;;;;;;9.63;2.17;;;;;;;;;;4982399;28;20381;-48
2023/05/20 09:23:05;;;;;;;9.07;2.15;;;;;;;;;;4979873;28;20084;-49
2023/05/20 09:25:33;;;;;;;8.65;2.65;;;;;;;;;;4967913;28;20041;-53
2023/05/20 09:28:02;;;;;;;8.70;1.80;;;;;;;;;;4980212;28;20044;-49
2023/05/20 09:30:30;;;;;;;7.55;2.38;;;;;;;;;;4949206;28;20046;-48
2023/05/20 09:32:59;;;;;;;8.38;2.22;;;;;;;;;;4973916;28;20050;-50
2023/05/20 09:35:27;;;;;;;6.97;2.38;;;;;;;;;;4954695;28;20643;-50
2023/05/20 09:37:57;;;;;;;6.55;2.58;;;;;;;;;;4960338;28;20872;-49
2023/05/20 09:40:27;;;;;;;5.87;2.10;;;;;;;;;;4978956;28;20527;-52
2023/05/20 09:42:56;;;;;;;7.60;2.55;;;;;;;;;;4962831;28;20484;-50
2023/05/20 09:45:23;;;;;;;10.90;2.42;;;;;;;;;;4957458;28;20038;-53
2023/05/20 09:47:53;;;;;;;8.63;2.45;;;;;;;;;;4977919;28;20061;-47
2023/05/20 09:50:22;;;;;;;12.27;2.28;;;;;;;;;;4981875;28;20133;-49
2023/05/20 09:52:50;;;;;;;5.20;1.93;;;;;;;;;;4980072;28;20038;-49
2023/05/20 09:55:21;;;;;;;7.65;1.70;;;;;;;;;;4974500;28;20049;-51
2023/05/20 09:57:48;;;;;;;6.57;2.08;;;;;;;;;;4956799;28;20038;-48
2023/05/20 10:00:16;;;;;;;10.52;2.00;;;;;;;;;;4969062;28;20046;-53
2023/05/20 10:02:46;;;;;;;5.45;2.03;;;;;;;;;;4968669;28;20054;-51
2023/05/20 10:05:17;;;;;;;7.60;2.30;;;;;;;;;;4965944;28;21517;-49
2023/05/20 10:08:10;;;;;;;9.85;2.15;;;;;;;;;;4974201;28;20050;-51
2023/05/20 10:10:44;;;;;;;6.57;2.22;;;;;;;;;;4984550;28;20061;-51
2023/05/20 10:13:16;;;;;;;8.95;2.47;;;;;;;;;;4972939;28;20523;-50
2023/05/20 10:15:49;;;;;;;8.45;2.28;;;;;;;;;;4964741;28;20052;-52
2023/05/20 10:18:23;;;;;;;7.57;2.00;;;;;;;;;;4972957;28;20124;-50
2023/05/20 10:20:52;;;;;;;5.60;1.90;;;;;;;;;;4980292;28;20058;-52
2023/05/20 10:23:21;;;;;;;9.07;2.65;;;;;;;;;;4972033;28;20046;-48
2023/05/20 10:25:54;;;;;;;8.10;2.35;;;;;;;;;;4971770;28;20050;-51
2023/05/20 10:28:29;;;;;;;10.40;2.03;;;;;;;;;;4969340;28;20491;-49
2023/05/20 10:30:57;;;;;;;9.70;1.80;;;;;;;;;;4970604;28;20049;-50
2023/05/20 10:33:25;;;;;;;7.20;1.85;;;;;;;;;;4976558;28;20041;-49
2023/05/20 10:35:54;;;;;;;10.80;1.70;;;;;;;;;;4954943;28;20463;-52
2023/05/20 10:38:21;;;;;;;8.18;2.05;;;;;;;;;;4980139;28;20034;-49
2023/05/20 10:40:50;;;;;;;10.85;2.00;;;;;;;;;;4951926;28;20048;-48
2023/05/20 10:43:28;;;;;;;7.90;2.07;;;;;;;;;;4980705;28;20122;-48
2023/05/20 10:45:58;;;;;;;10.55;2.45;;;;;;;;;;4975350;28;20046;-51
2023/05/20 10:48:28;;;;;;;8.23;1.85;;;;;;;;;;4970905;28;20041;-49
2023/05/20 10:50:56;;;;;;;6.57;1.77;;;;;;;;;;4983597;28;20121;-50
2023/05/20 10:53:25;;;;;;;12.27;2.38;;;;;;;;;;4983876;28;20100;-48
2023/05/20 10:56:03;;;;;;;6.90;1.60;;;;;;;;;;4976715;28;20475;-48
2023/05/20 10:58:38;;;;;;;6.20;1.65;;;;;;;;;;4975711;28;20169;-50
2023/05/20 11:01:06;;;;;;;5.68;1.70;;;;;;;;;;4971665;28;20049;-49
2023/05/20 11:03:35;;;;;;;6.32;1.98;;;;;;;;;;4972606;28;20053;-49
2023/05/20 11:06:11;;;;;;;7.95;2.40;;;;;;;;;;4979952;28;20042;-49
2023/05/20 11:08:43;;;;;;;7.83;2.27;;;;;;;;;;4957691;28;20042;-50
2023/05/20 11:11:11;;;;;;;9.20;2.53;;;;;;;;;;4961307;28;20050;-51
2023/05/20 11:13:40;;;;;;;6.68;2.05;;;;;;;;;;4977564;28;20038;-52
2023/05/20 11:16:10;;;;;;;5.88;2.30;;;;;;;;;;4968642;28;20125;-49
2023/05/20 11:18:38;;;;;;;9.60;2.00;;;;;;;;;;4982918;28;20048;-49
2023/05/20 11:21:05;;;;;;;8.57;2.60;;;;;;;;;;4956484;28;20256;-51
2023/05/20 11:23:34;;;;;;;9.77;2.10;;;;;;;;;;4986955;28;20030;-48
2023/05/20 11:26:02;;;;;;;7.03;1.90;;;;;;;;;;4965889;28;20053;-49
2023/05/20 11:28:31;;;;;;;6.32;2.30;;;;;;;;;;4958802;28;20093;-52
2023/05/20 11:31:02;;;;;;;6.53;2.10;;;;;;;;;;4972844;28;20053;-48
2023/05/20 11:33:30;;;;;;;8.47;2.33;;;;;;;;;;4981553;28;20072;-52
2023/05/20 11:35:58;;;;;;;6.88;2.15;;;;;;;;;;4976616;28;20056;-48
2023/05/20 11:38:26;;;;;;;5.40;1.33;;;;;;;;;;4957789;28;20034;-49
2023/05/20 11:40:54;;;;;;;7.90;1.20;;;;;;;;;;4970112;28;20044;-49
2023/05/20 11:43:24;;;;;;;8.70;1.50;;;;;;;;;;4963499;28;20194;-48
2023/05/20 11:45:53;;;;;;;7.07;1.80;;;;;;;;;;4959861;28;20053;-49
2023/05/20 11:48:23;;;;;;;6.15;2.05;;;;;;;;;;4978248;28;20456;-48
2023/05/20 11:50:52;;;;;;;7.80;2.05;;;;;;;;;;4974994;28;20073;-47
2023/05/20 11:53:22;;;;;;;7.65;2.05;;;;;;;;;;4964181;28;20042;-50
2023/05/20 11:55:51;;;;;;;7.45;2.38;;;;;;;;;;4971905;28;20053;-49
2023/05/20 11:58:19;;;;;;;7.03;2.17;;;;;;;;;;4969769;28;20046;-48
2023/05/20 12:00:47;;;;;;;8.05;2.35;;;;;;;;;;4975345;28;20053;-52
2023/05/20 12:03:24;;;;;;;8.10;2.13;;;;;;;;;;4982646;28;20817;-50
2023/05/20 12:05:53;;;;;;;8.13;1.73;;;;;;;;;;4966803;28;20045;-49
2023/05/20 12:08:21;;;;;;;9.98;2.17;;;;;;;;;;4961423;28;20050;-49
2023/05/20 12:10:49;;;;;;;6.80;2.30;;;;;;;;;;4974354;28;20198;-48
2023/05/20 12:13:18;;;;;;;4.35;1.80;;;;;;;;;;4973963;28;20038;-47
2023/05/20 12:15:45;;;;;;;5.68;2.15;;;;;;;;;;4985170;28;20065;-47
2023/05/20 12:18:13;;;;;;;5.07;1.95;;;;;;;;;;4964070;28;20089;-48
2023/05/20 12:20:47;;;;;;;6.68;1.80;;;;;;;;;;4984498;28;20108;-49
2023/05/20 12:23:15;;;;;;;10.93;2.43;;;;;;;;;;4976172;28;20049;-48
2023/05/20 12:25:44;;;;;;;7.05;1.40;;;;;;;;;;4960257;28;20034;-52
2023/05/20 12:28:13;;;;;;;4.82;1.70;;;;;;;;;;4965079;28;20302;-49
2023/05/20 12:30:41;;;;;;;5.60;2.10;;;;;;;;;;4975844;28;20038;-48
2023/05/20 12:33:08;;;;;;;7.47;2.15;;;;;;;;;;4963746;28;20550;-50
2023/05/20 12:35:37;;;;;;;7.30;1.33;;;;;;;;;;4974920;28;20040;-50
2023/05/20 12:38:07;;;;;;;7.35;1.80;;;;;;;;;;4974620;28;20043;-47
2023/05/20 12:40:35;;;;;;;5.75;1.85;;;;;;;;;;4956141;28;20045;-48
2023/05/20 12:43:05;;;;;;;6.55;1.95;;;;;;;;;;4966099;28;20100;-50
2023/05/20 12:45:33;;;;;;;6.00;1.80;;;;;;;;;;4975575;28;20049;-48
2023/05/20 12:48:00;;;;;;;5.60;1.40;;;;;;;;;;4966157;28;20046;-49
2023/05/20 12:50:28;;;;;;;8.63;2.15;;;;;;;;;;4978652;28;20046;-49
2023/05/20 12:52:56;;;;;;;5.50;1.70;;;;;;;;;;4980457;28;20053;-50
2023/05/20 12:55:26;;;;;;;5.32;1.42;;;;;;;;;;4972640;28;20042;-49
2023/05/20 12:57:55;;;;;;;5.40;1.52;;;;;;;;;;4978015;28;20046;-49
2023/05/20 13:00:23;;;;;;;7.73;1.67;;;;;;;;;;4971454;28;20942;-49
2023/05/20 13:02:51;;;;;;;7.10;1.42;;;;;;;;;;4974017;28;20038;-50
2023/05/20 13:05:20;;;;;;;4.18;1.50;;;;;;;;;;4955533;28;20321;-50
2023/05/20 13:07:48;;;;;;;8.13;2.08;;;;;;;;;;4978315;28;20038;-49
2023/05/20 13:10:17;;;;;;;6.75;1.40;;;;;;;;;;4967478;28;20117;-50
2023/05/20 13:12:47;;;;;;;7.23;1.90;;;;;;;;;;4978207;28;20054;-51
2023/05/20 13:15:15;;;;;;;5.95;1.52;;;;;;;;;;4981699;28;20121;-46
2023/05/20 13:17:43;;;;;;;6.93;1.73;;;;;;;;;;4973768;28;20516;-47
2023/05/20 13:20:12;;;;;;;6.95;1.77;;;;;;;;;;4982983;28;20413;-48
2023/05/20 13:22:40;;;;;;;4.22;1.30;;;;;;;;;;4972753;28;20058;-47
2023/05/20 13:25:08;;;;;;;8.17;1.63;;;;;;;;;;4975199;28;20506;-46
2023/05/20 13:27:37;;;;;;;6.95;1.85;;;;;;;;;;4977316;28;20444;-51
2023/05/20 13:30:07;;;;;;;6.95;1.83;;;;;;;;;;4959008;28;20970;-49
2023/05/20 13:32:35;;;;;;;4.30;1.58;;;;;;;;;;4988960;28;20034;-49
2023/05/20 13:35:04;;;;;;;7.40;1.45;;;;;;;;;;4972957;28;20050;-48
2023/05/20 13:37:31;;;;;;;5.83;1.87;;;;;;;;;;4957373;28;20488;-48
2023/05/20 13:39:59;;;;;;;4.70;1.55;;;;;;;;;;4960978;28;20210;-52
2023/05/20 13:42:28;;;;;;;4.72;1.60;;;;;;;;;;4970214;28;20460;-47
2023/05/20 13:44:56;;;;;;;5.75;1.67;;;;;;;;;;4977982;28;20046;-54
2023/05/20 13:47:28;;;;;;;5.85;1.42;;;;;;;;;;4968733;28;20412;-48
2023/05/20 13:49:56;;;;;;;7.50;1.80;;;;;;;;;;4947564;28;20146;-48
2023/05/20 13:52:25;;;;;;;6.32;1.95;;;;;;;;;;4969579;28;20447;-50
2023/05/20 13:54:53;;;;;;;5.00;1.63;;;;;;;;;;4982306;28;20045;-49
2023/05/20 13:57:22;;;;;;;7.47;1.98;;;;;;;;;;4964079;28;20108;-52
2023/05/20 13:59:50;;;;;;;5.97;2.38;;;;;;;;;;4970419;28;20050;-51
2023/05/20 14:02:17;;;;;;;5.43;1.47;;;;;;;;;;4975335;28;20038;-51
2023/05/20 14:04:47;;;;;;;6.63;1.58;;;;;;;;;;4949877;28;20145;-52
2023/05/20 14:07:16;;;;;;;5.25;1.60;;;;;;;;;;4974874;28;20037;-49
2023/05/20 14:09:43;;;;;;;4.50;1.33;;;;;;;;;;4968698;28;20046;-48
2023/05/20 14:12:11;;;;;;;6.15;1.38;;;;;;;;;;4966316;28;20050;-48
2023/05/20 14:14:40;;;;;;;4.40;1.23;;;;;;;;;;4977464;28;20038;-47
2023/05/20 14:17:07;;;;;;;4.55;1.40;;;;;;;;;;4970370;28;20400;-50
2023/05/20 14:19:37;;;;;;;5.43;1.23;;;;;;;;;;4961497;28;20044;-49
2023/05/20 14:22:07;;;;;;;6.35;1.50;;;;;;;;;;4958004;28;20042;-48
2023/05/20 14:24:34;;;;;;;6.68;1.52;;;;;;;;;;4965906;28;20042;-47
2023/05/20 14:27:03;;;;;;;5.73;1.53;;;;;;;;;;4969119;28;20173;-48
2023/05/20 14:29:31;;;;;;;5.35;1.52;;;;;;;;;;4984546;28;20104;-50
2023/05/20 14:32:00;;;;;;;6.53;1.55;;;;;;;;;;4961774;28;20457;-52
2023/05/20 14:34:28;;;;;;;4.38;1.48;;;;;;;;;;4970898;28;20065;-49
2023/05/20 14:37:04;;;;;;;8.00;1.77;;;;;;;;;;4977045;28;20042;-47
2023/05/20 14:39:34;;;;;;;5.90;1.33;;;;;;;;;;4981791;28;20042;-48
2023/05/20 14:42:02;;;;;;;5.03;1.42;;;;;;;;;;4965910;28;20049;-46
2023/05/20 14:44:29;;;;;;;5.18;1.50;;;;;;;;;;4949701;28;20046;-47
2023/05/20 14:46:57;;;;;;;5.65;1.65;;;;;;;;;;4979640;28;20042;-49